Time;durP1;ratioP1;P1;durP2;ratioP2;P2;SDS_P1;SDS_P2;PMS_P1;PMS_P2;Temp;Humidity;BMP_temperature;BMP_pressure;BME280_temperature;BME280_humidity;BME280_pressure;Samples;Min_cycle;Max_cycle;Signal;HPM_P1;HPM_P2
2023/09/16 00:01:30;;;;;;;616.53;161.98;;;;;;;;;;5065933;28;20063;-54
2023/09/16 00:03:55;;;;;;;620.75;165.45;;;;;;;;;;5065800;28;20017;-55
2023/09/16 00:06:20;;;;;;;620.15;163.65;;;;;;;;;;5047121;28;20017;-51
2023/09/16 00:08:46;;;;;;;620.92;160.98;;;;;;;;;;5046766;28;20021;-52
2023/09/16 00:11:11;;;;;;;620.90;161.40;;;;;;;;;;5047574;28;20616;-53
2023/09/16 00:13:37;;;;;;;621.95;161.95;;;;;;;;;;5062856;28;20058;-53
2023/09/16 00:16:02;;;;;;;619.70;159.77;;;;;;;;;;5065407;28;20077;-52
2023/09/16 00:18:28;;;;;;;619.13;158.48;;;;;;;;;;5065523;28;20025;-48
2023/09/16 00:20:53;;;;;;;621.22;158.65;;;;;;;;;;5050514;28;20037;-51
2023/09/16 00:23:18;;;;;;;620.22;159.55;;;;;;;;;;5046409;28;20481;-54
2023/09/16 00:25:45;;;;;;;618.60;159.57;;;;;;;;;;5064159;28;20462;-53
2023/09/16 00:28:10;;;;;;;619.50;160.80;;;;;;;;;;5064215;28;20052;-56
2023/09/16 00:30:36;;;;;;;623.38;161.30;;;;;;;;;;5062675;28;20056;-53
2023/09/16 00:33:03;;;;;;;622.42;160.80;;;;;;;;;;5065919;28;20468;-56
2023/09/16 00:35:28;;;;;;;618.30;156.50;;;;;;;;;;5064270;28;20028;-51
2023/09/16 00:37:53;;;;;;;621.70;161.00;;;;;;;;;;5065847;28;20405;-51
2023/09/16 00:40:19;;;;;;;620.20;157.63;;;;;;;;;;5058569;28;20120;-51
2023/09/16 00:42:44;;;;;;;626.58;159.43;;;;;;;;;;5049685;28;20493;-53
2023/09/16 00:45:10;;;;;;;627.67;162.25;;;;;;;;;;5058827;28;20500;-49
2023/09/16 00:47:41;;;;;;;617.80;154.93;;;;;;;;;;5054135;28;20102;-52
2023/09/16 00:50:11;;;;;;;621.92;157.70;;;;;;;;;;5064276;28;20098;-53
2023/09/16 00:52:37;;;;;;;627.83;157.20;;;;;;;;;;5065714;28;20423;-50
2023/09/16 00:55:03;;;;;;;622.55;160.10;;;;;;;;;;5063963;28;20027;-54
2023/09/16 00:57:29;;;;;;;626.80;157.88;;;;;;;;;;5063136;28;20028;-54
2023/09/16 00:59:55;;;;;;;623.53;158.82;;;;;;;;;;5060169;28;20092;-51
2023/09/16 01:02:21;;;;;;;621.25;156.80;;;;;;;;;;5065748;28;20561;-50
2023/09/16 01:04:46;;;;;;;624.40;160.18;;;;;;;;;;5057367;28;20029;-54
2023/09/16 01:07:14;;;;;;;615.15;155.68;;;;;;;;;;5045259;28;20470;-52
2023/09/16 01:09:40;;;;;;;622.20;158.57;;;;;;;;;;5044584;28;20226;-49
2023/09/16 01:12:05;;;;;;;624.35;157.70;;;;;;;;;;5045679;28;20276;-52
2023/09/16 01:14:30;;;;;;;620.50;156.68;;;;;;;;;;5049483;28;20048;-52
2023/09/16 01:16:58;;;;;;;622.25;159.95;;;;;;;;;;5065221;28;20373;-52
2023/09/16 01:19:23;;;;;;;619.60;157.93;;;;;;;;;;5063228;28;20024;-53
2023/09/16 01:21:48;;;;;;;616.22;153.95;;;;;;;;;;5064800;28;20080;-52
2023/09/16 01:24:17;;;;;;;622.47;155.82;;;;;;;;;;5045400;28;20096;-54
2023/09/16 01:26:42;;;;;;;622.40;156.43;;;;;;;;;;5064986;28;20132;-52
2023/09/16 01:29:08;;;;;;;621.28;158.80;;;;;;;;;;5063474;28;20573;-53
2023/09/16 01:31:33;;;;;;;623.78;155.88;;;;;;;;;;5064321;28;20028;-49
2023/09/16 01:34:00;;;;;;;627.28;160.50;;;;;;;;;;5045465;28;20082;-51
2023/09/16 01:36:27;;;;;;;627.47;158.50;;;;;;;;;;5044754;28;20382;-51
2023/09/16 01:38:56;;;;;;;622.92;156.80;;;;;;;;;;5045043;28;20024;-53
2023/09/16 01:41:21;;;;;;;626.35;154.00;;;;;;;;;;5064553;28;20039;-52
2023/09/16 01:43:47;;;;;;;619.85;152.32;;;;;;;;;;5064876;28;20052;-53
2023/09/16 01:46:13;;;;;;;624.70;154.15;;;;;;;;;;5059465;28;20029;-53
2023/09/16 01:48:38;;;;;;;618.53;151.88;;;;;;;;;;5047714;28;20033;-54
2023/09/16 01:51:03;;;;;;;619.63;157.77;;;;;;;;;;5045382;28;20181;-53
2023/09/16 01:53:28;;;;;;;621.85;155.38;;;;;;;;;;5044251;28;20040;-53
2023/09/16 01:55:54;;;;;;;619.80;153.35;;;;;;;;;;5055003;28;20041;-52
2023/09/16 01:58:19;;;;;;;622.35;154.93;;;;;;;;;;5044786;28;20052;-54
2023/09/16 02:00:44;;;;;;;620.55;154.45;;;;;;;;;;5055669;28;20040;-53
2023/09/16 02:03:10;;;;;;;628.25;154.85;;;;;;;;;;5063611;28;20522;-54
2023/09/16 02:05:35;;;;;;;619.13;153.68;;;;;;;;;;5061409;28;20017;-55
2023/09/16 02:08:01;;;;;;;622.50;152.80;;;;;;;;;;5063680;28;20020;-51
2023/09/16 02:10:26;;;;;;;619.10;150.13;;;;;;;;;;5062489;28;20099;-53
2023/09/16 02:12:51;;;;;;;620.08;151.25;;;;;;;;;;5064514;28;20070;-52
2023/09/16 02:15:17;;;;;;;614.97;147.38;;;;;;;;;;5063006;28;20017;-53
2023/09/16 02:17:42;;;;;;;622.65;151.73;;;;;;;;;;5063596;28;20525;-53
2023/09/16 02:20:10;;;;;;;622.92;151.05;;;;;;;;;;5062835;28;20021;-52
2023/09/16 02:22:36;;;;;;;620.78;147.85;;;;;;;;;;5064566;28;20384;-49
2023/09/16 02:25:01;;;;;;;617.60;146.25;;;;;;;;;;5063162;28;20184;-55
2023/09/16 02:27:27;;;;;;;618.15;146.82;;;;;;;;;;5064355;28;20389;-51
2023/09/16 02:29:52;;;;;;;620.38;146.38;;;;;;;;;;5063572;28;20031;-54
2023/09/16 02:32:17;;;;;;;618.75;148.82;;;;;;;;;;5064539;28;20033;-51
2023/09/16 02:34:42;;;;;;;621.33;147.60;;;;;;;;;;5059226;28;20465;-52
2023/09/16 02:37:08;;;;;;;615.58;143.63;;;;;;;;;;5044160;28;20107;-52
2023/09/16 02:39:33;;;;;;;617.95;145.50;;;;;;;;;;5051325;28;20035;-55
2023/09/16 02:41:58;;;;;;;621.35;149.48;;;;;;;;;;5064572;28;20477;-52
2023/09/16 02:44:24;;;;;;;616.97;147.02;;;;;;;;;;5062099;28;20040;-52
2023/09/16 02:46:49;;;;;;;615.20;146.60;;;;;;;;;;5043471;28;20106;-55
2023/09/16 02:49:14;;;;;;;619.45;148.48;;;;;;;;;;5046406;28;20029;-54
2023/09/16 02:51:39;;;;;;;614.33;148.07;;;;;;;;;;5063594;28;20393;-54
2023/09/16 02:54:06;;;;;;;619.83;148.98;;;;;;;;;;5045426;28;20017;-51
2023/09/16 02:56:31;;;;;;;617.13;148.70;;;;;;;;;;5064706;28;20025;-51
2023/09/16 02:58:57;;;;;;;617.22;149.55;;;;;;;;;;5063180;28;20094;-52
2023/09/16 03:01:22;;;;;;;615.45;142.68;;;;;;;;;;5061975;28;20733;-55
2023/09/16 03:03:47;;;;;;;617.88;146.88;;;;;;;;;;5057324;28;20474;-55
2023/09/16 03:06:13;;;;;;;611.53;142.52;;;;;;;;;;5063972;28;20031;-52
2023/09/16 03:08:38;;;;;;;613.78;143.38;;;;;;;;;;5067170;28;20059;-52
2023/09/16 03:11:04;;;;;;;613.78;144.85;;;;;;;;;;5064071;28;20415;-53
2023/09/16 03:13:29;;;;;;;613.88;144.02;;;;;;;;;;5067662;28;20430;-52
2023/09/16 03:16:15;;;;;;;609.10;140.05;;;;;;;;;;5065852;28;20051;-52
2023/09/16 03:18:48;;;;;;;619.95;143.27;;;;;;;;;;5065963;28;20094;-50
2023/09/16 03:21:14;;;;;;;614.08;144.38;;;;;;;;;;5064977;28;21585;-50
2023/09/16 03:23:40;;;;;;;611.60;142.55;;;;;;;;;;5066777;28;20049;-51
2023/09/16 03:26:05;;;;;;;612.08;146.27;;;;;;;;;;5065350;28;20051;-55
2023/09/16 03:28:30;;;;;;;611.85;143.57;;;;;;;;;;5067390;28;20031;-49
2023/09/16 03:30:56;;;;;;;610.92;147.43;;;;;;;;;;5065497;28;20477;-53
2023/09/16 03:33:21;;;;;;;608.90;144.00;;;;;;;;;;5067006;28;20027;-54
2023/09/16 03:35:46;;;;;;;614.13;146.52;;;;;;;;;;5065436;28;20029;-54
2023/09/16 03:38:12;;;;;;;616.20;149.35;;;;;;;;;;5067176;28;20020;-53
2023/09/16 03:40:37;;;;;;;610.92;143.70;;;;;;;;;;5034735;28;20041;-53
2023/09/16 03:43:04;;;;;;;613.40;149.35;;;;;;;;;;5046820;28;20036;-53
2023/09/16 03:45:29;;;;;;;615.25;146.60;;;;;;;;;;5050328;28;20033;-53
2023/09/16 03:47:54;;;;;;;611.67;149.15;;;;;;;;;;5051104;28;20086;-52
2023/09/16 03:50:20;;;;;;;606.72;142.25;;;;;;;;;;5058183;28;20389;-55
2023/09/16 03:52:45;;;;;;;610.72;144.68;;;;;;;;;;5066601;28;20433;-54
2023/09/16 03:55:10;;;;;;;611.55;146.10;;;;;;;;;;5064897;28;20025;-52
2023/09/16 03:57:35;;;;;;;612.75;145.88;;;;;;;;;;5061379;28;20485;-52
2023/09/16 04:00:01;;;;;;;609.95;143.50;;;;;;;;;;5028106;28;20050;-54
2023/09/16 04:02:27;;;;;;;609.10;146.05;;;;;;;;;;5042511;28;20119;-51
2023/09/16 04:04:53;;;;;;;611.67;145.13;;;;;;;;;;5064885;28;20589;-52
2023/09/16 04:07:18;;;;;;;608.97;142.73;;;;;;;;;;5066450;28;20013;-53
2023/09/16 04:09:43;;;;;;;612.63;145.32;;;;;;;;;;5058692;28;20063;-54
2023/09/16 04:12:08;;;;;;;608.67;146.15;;;;;;;;;;5046915;28;20111;-48
2023/09/16 04:14:34;;;;;;;611.78;147.77;;;;;;;;;;5051494;28;20024;-50
2023/09/16 04:16:59;;;;;;;611.72;146.25;;;;;;;;;;5066350;28;20177;-52
2023/09/16 04:19:24;;;;;;;610.97;146.35;;;;;;;;;;5057960;28;20020;-56
2023/09/16 04:21:51;;;;;;;609.35;144.30;;;;;;;;;;5065862;28;20390;-50
2023/09/16 04:24:16;;;;;;;607.85;145.70;;;;;;;;;;5063395;28;20025;-52
2023/09/16 04:26:41;;;;;;;610.92;147.02;;;;;;;;;;5046196;28;20021;-52
2023/09/16 04:29:07;;;;;;;612.38;145.35;;;;;;;;;;5059695;28;20120;-50
2023/09/16 04:31:32;;;;;;;609.20;142.10;;;;;;;;;;5064796;28;20437;-52
2023/09/16 04:33:58;;;;;;;608.28;142.60;;;;;;;;;;5064423;28;20418;-52
2023/09/16 04:36:23;;;;;;;610.08;142.20;;;;;;;;;;5065354;28;20028;-54
2023/09/16 04:38:48;;;;;;;610.83;141.40;;;;;;;;;;5065432;28;20021;-54
2023/09/16 04:41:14;;;;;;;614.88;140.15;;;;;;;;;;5065010;28;20054;-52
2023/09/16 04:43:40;;;;;;;608.55;139.80;;;;;;;;;;5064880;28;20225;-52
2023/09/16 04:46:05;;;;;;;606.10;139.30;;;;;;;;;;5051527;28;20025;-53
2023/09/16 04:48:30;;;;;;;610.13;142.48;;;;;;;;;;5046884;28;20021;-51
2023/09/16 04:50:56;;;;;;;611.33;139.77;;;;;;;;;;5062099;28;20020;-50
2023/09/16 04:53:21;;;;;;;609.22;139.20;;;;;;;;;;5065647;28;20643;-51
2023/09/16 04:55:46;;;;;;;606.38;138.40;;;;;;;;;;5065149;28;20382;-51
2023/09/16 04:58:12;;;;;;;607.67;136.80;;;;;;;;;;5065913;28;20035;-50
2023/09/16 05:00:38;;;;;;;610.10;136.07;;;;;;;;;;5038788;28;20099;-54
2023/09/16 05:03:04;;;;;;;609.47;140.63;;;;;;;;;;5045358;28;20020;-53
2023/09/16 05:05:29;;;;;;;612.00;142.90;;;;;;;;;;5057757;28;20024;-52
2023/09/16 05:07:55;;;;;;;608.70;141.63;;;;;;;;;;5065108;28;20397;-52
2023/09/16 05:10:21;;;;;;;605.72;141.35;;;;;;;;;;5053827;28;20248;-53
2023/09/16 05:12:46;;;;;;;607.63;141.48;;;;;;;;;;5042721;28;20032;-51
2023/09/16 05:15:11;;;;;;;609.47;140.55;;;;;;;;;;5056106;28;20448;-50
2023/09/16 05:17:37;;;;;;;605.90;140.43;;;;;;;;;;5064299;28;20078;-52
2023/09/16 05:20:03;;;;;;;605.53;137.55;;;;;;;;;;5056092;28;20067;-55
2023/09/16 05:22:28;;;;;;;606.65;138.48;;;;;;;;;;5045358;28;20025;-53
2023/09/16 05:24:53;;;;;;;607.90;139.35;;;;;;;;;;5052612;28;20367;-55
2023/09/16 05:27:19;;;;;;;608.60;139.63;;;;;;;;;;5065274;28;20099;-52
2023/09/16 05:29:44;;;;;;;611.55;140.10;;;;;;;;;;5062773;28;20474;-54
2023/09/16 05:32:09;;;;;;;609.55;140.65;;;;;;;;;;5061551;28;20016;-53
2023/09/16 05:34:34;;;;;;;608.08;140.65;;;;;;;;;;5057810;28;20024;-52
2023/09/16 05:37:00;;;;;;;609.20;141.23;;;;;;;;;;5053731;28;20025;-51
2023/09/16 05:39:25;;;;;;;607.63;137.30;;;;;;;;;;5058170;28;20331;-52
2023/09/16 05:41:50;;;;;;;614.97;140.35;;;;;;;;;;5056627;28;20482;-53
2023/09/16 05:44:19;;;;;;;612.35;138.38;;;;;;;;;;5061471;28;20064;-51
2023/09/16 05:46:45;;;;;;;616.40;137.27;;;;;;;;;;5048164;28;20024;-50
2023/09/16 05:49:11;;;;;;;615.65;141.15;;;;;;;;;;5056161;28;20020;-49
2023/09/16 05:51:36;;;;;;;621.72;138.52;;;;;;;;;;5064552;28;20020;-51
2023/09/16 05:54:02;;;;;;;624.85;146.27;;;;;;;;;;5063499;28;20085;-50
2023/09/16 05:56:27;;;;;;;628.03;138.90;;;;;;;;;;5064644;28;20025;-51
2023/09/16 05:58:52;;;;;;;627.97;142.40;;;;;;;;;;5063953;28;20037;-50
2023/09/16 06:01:18;;;;;;;624.50;142.73;;;;;;;;;;5059272;28;20367;-53
2023/09/16 06:03:43;;;;;;;420.08;104.53;;;;;;;;;;5063937;28;20337;-54
2023/09/16 06:06:08;;;;;;;615.35;145.70;;;;;;;;;;5062569;28;20039;-51
2023/09/16 06:08:34;;;;;;;612.10;147.10;;;;;;;;;;5063896;28;20032;-56
2023/09/16 06:10:59;;;;;;;622.58;152.45;;;;;;;;;;5050302;28;20063;-54
2023/09/16 06:13:25;;;;;;;616.85;154.13;;;;;;;;;;5064033;28;20492;-49
2023/09/16 06:15:50;;;;;;;617.80;153.85;;;;;;;;;;5063535;28;20029;-53
2023/09/16 06:18:15;;;;;;;620.00;156.52;;;;;;;;;;5064616;28;20024;-54
2023/09/16 06:20:41;;;;;;;614.20;152.77;;;;;;;;;;5063673;28;20029;-51
2023/09/16 06:23:06;;;;;;;616.60;156.93;;;;;;;;;;5063623;28;20029;-51
2023/09/16 06:25:33;;;;;;;616.80;158.05;;;;;;;;;;5062514;28;20086;-53
2023/09/16 06:27:59;;;;;;;614.45;157.93;;;;;;;;;;5064683;28;20035;-53
2023/09/16 06:30:25;;;;;;;616.00;151.80;;;;;;;;;;5052572;28;20558;-53
2023/09/16 06:32:52;;;;;;;614.92;152.65;;;;;;;;;;5041728;28;20467;-51
2023/09/16 06:35:17;;;;;;;616.58;156.20;;;;;;;;;;5057033;28;20438;-52
2023/09/16 06:37:43;;;;;;;615.60;159.57;;;;;;;;;;5064135;28;20297;-52
2023/09/16 06:40:08;;;;;;;613.13;157.25;;;;;;;;;;5064115;28;20530;-52
2023/09/16 06:42:34;;;;;;;617.92;163.10;;;;;;;;;;5068084;28;20024;-52
2023/09/16 06:44:59;;;;;;;616.00;155.70;;;;;;;;;;5062420;28;20055;-52
2023/09/16 06:47:27;;;;;;;618.15;158.48;;;;;;;;;;5058166;28;20029;-53
2023/09/16 06:49:54;;;;;;;614.45;156.25;;;;;;;;;;5059329;28;20478;-53
2023/09/16 06:52:22;;;;;;;609.53;152.13;;;;;;;;;;5067559;28;20021;-50
2023/09/16 06:54:48;;;;;;;618.53;156.02;;;;;;;;;;5066881;28;20021;-54
2023/09/16 06:57:13;;;;;;;616.30;160.80;;;;;;;;;;5066195;28;20029;-53
2023/09/16 06:59:39;;;;;;;615.45;157.05;;;;;;;;;;5064551;28;20389;-53
2023/09/16 07:02:04;;;;;;;615.40;156.95;;;;;;;;;;5065988;28;20770;-52
2023/09/16 07:04:29;;;;;;;617.28;162.07;;;;;;;;;;5062457;28;20043;-52
2023/09/16 07:06:54;;;;;;;615.65;158.73;;;;;;;;;;5047712;28;20028;-54
2023/09/16 07:09:20;;;;;;;616.88;159.00;;;;;;;;;;5064450;28;20439;-51
2023/09/16 07:11:46;;;;;;;620.75;161.73;;;;;;;;;;5067576;28;20130;-50
2023/09/16 07:14:11;;;;;;;615.92;161.40;;;;;;;;;;5065677;28;20452;-50
2023/09/16 07:16:38;;;;;;;620.95;166.65;;;;;;;;;;5066814;28;20039;-50
2023/09/16 07:19:03;;;;;;;622.75;164.25;;;;;;;;;;5064131;28;20382;-53
2023/09/16 07:21:31;;;;;;;615.35;161.38;;;;;;;;;;5052501;28;20036;-53
2023/09/16 07:24:00;;;;;;;626.67;171.07;;;;;;;;;;5065162;28;20046;-54
2023/09/16 07:26:26;;;;;;;617.70;163.40;;;;;;;;;;5047139;28;20028;-51
2023/09/16 07:28:51;;;;;;;619.15;168.73;;;;;;;;;;5047166;28;20386;-54
2023/09/16 07:31:16;;;;;;;624.65;171.45;;;;;;;;;;5067149;28;20481;-53
2023/09/16 07:33:41;;;;;;;618.60;169.48;;;;;;;;;;5067145;28;20114;-53
2023/09/16 07:36:07;;;;;;;617.65;168.50;;;;;;;;;;5065444;28;20105;-52
2023/09/16 07:38:32;;;;;;;618.95;166.75;;;;;;;;;;5067332;28;20292;-54
2023/09/16 07:40:57;;;;;;;622.95;172.40;;;;;;;;;;5065070;28;20127;-52
2023/09/16 07:43:23;;;;;;;627.58;173.40;;;;;;;;;;5066633;28;20045;-52
2023/09/16 07:45:48;;;;;;;623.58;170.60;;;;;;;;;;5054949;28;20464;-50
2023/09/16 07:48:14;;;;;;;619.90;172.10;;;;;;;;;;5066796;28;20023;-56
2023/09/16 07:50:40;;;;;;;621.10;171.80;;;;;;;;;;5065133;28;20036;-53
2023/09/16 07:53:05;;;;;;;629.75;174.85;;;;;;;;;;5065489;28;20028;-53
2023/09/16 07:55:30;;;;;;;624.88;177.50;;;;;;;;;;5065103;28;20020;-53
2023/09/16 07:57:55;;;;;;;619.70;171.93;;;;;;;;;;5061862;28;20028;-54
2023/09/16 08:00:21;;;;;;;627.10;178.55;;;;;;;;;;5062792;28;20059;-53
2023/09/16 08:02:46;;;;;;;622.83;172.15;;;;;;;;;;5066772;28;20377;-53
2023/09/16 08:05:11;;;;;;;616.50;168.20;;;;;;;;;;5065083;28;20375;-54
2023/09/16 08:07:36;;;;;;;622.15;178.85;;;;;;;;;;5066812;28;20032;-53
2023/09/16 08:10:02;;;;;;;624.03;178.18;;;;;;;;;;5064958;28;20039;-52
2023/09/16 08:12:27;;;;;;;621.53;174.10;;;;;;;;;;5065987;28;20021;-52
2023/09/16 08:14:53;;;;;;;634.85;182.18;;;;;;;;;;5061129;28;20105;-51
2023/09/16 08:17:18;;;;;;;622.72;177.38;;;;;;;;;;5047290;28;20067;-54
2023/09/16 08:19:43;;;;;;;628.83;175.75;;;;;;;;;;5065144;28;20438;-52
2023/09/16 08:22:08;;;;;;;624.38;182.40;;;;;;;;;;5058584;28;20046;-49
2023/09/16 08:24:34;;;;;;;625.85;184.07;;;;;;;;;;5059071;28;20029;-54
2023/09/16 08:26:59;;;;;;;629.67;176.05;;;;;;;;;;5049050;28;20276;-51
2023/09/16 08:29:25;;;;;;;628.47;185.73;;;;;;;;;;5048075;28;20082;-51
2023/09/16 08:31:50;;;;;;;626.08;183.57;;;;;;;;;;5065235;28;20107;-51
2023/09/16 08:34:15;;;;;;;629.58;187.00;;;;;;;;;;5059659;28;20020;-53
2023/09/16 08:36:41;;;;;;;628.22;192.40;;;;;;;;;;5064677;28;20039;-51
2023/09/16 08:39:06;;;;;;;626.35;188.73;;;;;;;;;;5063455;28;20025;-51
2023/09/16 08:41:39;;;;;;;647.70;183.35;;;;;;;;;;5065867;28;20025;-54
2023/09/16 08:44:05;;;;;;;650.90;197.23;;;;;;;;;;5063530;28;20055;-54
2023/09/16 08:46:32;;;;;;;648.78;198.63;;;;;;;;;;5049053;28;20029;-55
2023/09/16 08:48:59;;;;;;;644.70;198.48;;;;;;;;;;5046882;28;20029;-50
2023/09/16 08:51:24;;;;;;;652.28;207.80;;;;;;;;;;5045551;28;20036;-54
2023/09/16 08:53:51;;;;;;;645.92;207.60;;;;;;;;;;5045753;28;20091;-55
2023/09/16 08:56:16;;;;;;;644.83;212.50;;;;;;;;;;5065486;28;20485;-52
2023/09/16 08:58:43;;;;;;;641.22;213.82;;;;;;;;;;5062132;28;20069;-54
2023/09/16 09:01:10;;;;;;;645.03;219.32;;;;;;;;;;5063093;28;20478;-51
2023/09/16 09:03:35;;;;;;;645.63;222.90;;;;;;;;;;5064787;28;20020;-53
2023/09/16 09:06:00;;;;;;;647.38;226.18;;;;;;;;;;5064325;28;20040;-52
2023/09/16 09:08:26;;;;;;;651.58;227.90;;;;;;;;;;5065574;28;20020;-53
2023/09/16 09:10:51;;;;;;;644.67;222.88;;;;;;;;;;5064305;28;20028;-52
2023/09/16 09:13:16;;;;;;;645.42;236.00;;;;;;;;;;5065391;28;20025;-56
2023/09/16 09:15:44;;;;;;;645.55;235.65;;;;;;;;;;5050530;28;20029;-52
2023/09/16 09:18:10;;;;;;;641.95;226.50;;;;;;;;;;5065847;28;20406;-54
2023/09/16 09:20:36;;;;;;;641.85;233.38;;;;;;;;;;5051866;28;20552;-53
2023/09/16 09:23:02;;;;;;;647.78;236.73;;;;;;;;;;5050242;28;20048;-51
2023/09/16 09:25:28;;;;;;;644.67;228.32;;;;;;;;;;5062475;28;20201;-53
2023/09/16 09:27:55;;;;;;;648.13;240.65;;;;;;;;;;5065474;28;20025;-52
2023/09/16 09:30:26;;;;;;;645.88;240.88;;;;;;;;;;5053616;28;20091;-55
2023/09/16 09:32:52;;;;;;;651.25;242.60;;;;;;;;;;5062346;28;20113;-54
2023/09/16 09:35:20;;;;;;;643.55;240.65;;;;;;;;;;5042610;28;20474;-53
2023/09/16 09:37:47;;;;;;;650.80;254.40;;;;;;;;;;5061642;28;20032;-52
2023/09/16 09:40:12;;;;;;;642.58;246.13;;;;;;;;;;5062241;28;20478;-54
2023/09/16 09:42:42;;;;;;;649.45;255.60;;;;;;;;;;5064338;28;20028;-54
2023/09/16 09:45:07;;;;;;;652.75;257.67;;;;;;;;;;5057501;28;20549;-50
2023/09/16 09:47:34;;;;;;;647.25;253.07;;;;;;;;;;5057642;28;20093;-53
2023/09/16 09:50:00;;;;;;;644.47;250.18;;;;;;;;;;5058348;28;20025;-55
2023/09/16 09:52:25;;;;;;;646.97;255.18;;;;;;;;;;5061444;28;20113;-56
2023/09/16 09:54:51;;;;;;;652.00;265.02;;;;;;;;;;5064106;28;20033;-53
2023/09/16 09:57:16;;;;;;;654.03;269.75;;;;;;;;;;5059930;28;20024;-53
2023/09/16 09:59:42;;;;;;;654.55;274.95;;;;;;;;;;5063514;28;20380;-55
2023/09/16 10:02:08;;;;;;;649.60;269.80;;;;;;;;;;5065338;28;20355;-53
2023/09/16 10:04:33;;;;;;;654.97;277.27;;;;;;;;;;5058678;28;20033;-54
2023/09/16 10:07:00;;;;;;;657.55;262.63;;;;;;;;;;5057569;28;20482;-54
2023/09/16 10:09:25;;;;;;;652.40;261.17;;;;;;;;;;5050898;28;20116;-54
2023/09/16 10:11:50;;;;;;;647.20;254.35;;;;;;;;;;5059044;28;20119;-54
2023/09/16 10:14:16;;;;;;;647.38;258.30;;;;;;;;;;5064268;28;20020;-52
2023/09/16 10:16:42;;;;;;;650.45;264.13;;;;;;;;;;5068971;28;20611;-55
2023/09/16 10:19:08;;;;;;;648.28;259.67;;;;;;;;;;5067544;28;20068;-53
2023/09/16 10:21:35;;;;;;;647.10;270.13;;;;;;;;;;5067388;28;20029;-55
2023/09/16 10:24:01;;;;;;;648.72;262.15;;;;;;;;;;5067437;28;20108;-54
2023/09/16 10:26:26;;;;;;;649.22;262.05;;;;;;;;;;5066982;28;20109;-50
2023/09/16 10:28:52;;;;;;;645.65;258.27;;;;;;;;;;5049124;28;20013;-57
2023/09/16 10:31:18;;;;;;;645.67;258.15;;;;;;;;;;5066165;28;20028;-55
2023/09/16 10:33:43;;;;;;;643.03;255.02;;;;;;;;;;5069030;28;20086;-55
2023/09/16 10:36:09;;;;;;;644.50;256.92;;;;;;;;;;5067737;28;20024;-52
2023/09/16 10:38:36;;;;;;;647.75;256.30;;;;;;;;;;5061754;28;20029;-54
2023/09/16 10:41:03;;;;;;;642.20;246.73;;;;;;;;;;5066801;28;20043;-52
2023/09/16 10:43:28;;;;;;;649.22;249.63;;;;;;;;;;5068093;28;20055;-56
2023/09/16 10:45:54;;;;;;;643.40;245.77;;;;;;;;;;5055858;28;20033;-53
2023/09/16 10:48:20;;;;;;;635.85;231.30;;;;;;;;;;5048691;28;20381;-54
2023/09/16 10:50:47;;;;;;;641.05;240.05;;;;;;;;;;5066950;28;20044;-52
2023/09/16 10:53:22;;;;;;;644.65;235.07;;;;;;;;;;5067641;28;20108;-56
2023/09/16 10:55:50;;;;;;;651.72;238.48;;;;;;;;;;5059262;28;20019;-52
2023/09/16 10:58:21;;;;;;;644.90;237.17;;;;;;;;;;5067623;28;20029;-50
2023/09/16 11:00:49;;;;;;;647.70;230.98;;;;;;;;;;5066518;28;20354;-53
2023/09/16 11:03:14;;;;;;;650.40;237.80;;;;;;;;;;5068143;28;20039;-53
2023/09/16 11:05:40;;;;;;;645.17;236.93;;;;;;;;;;5052701;28;20496;-54
2023/09/16 11:08:06;;;;;;;644.00;243.05;;;;;;;;;;5051034;28;20031;-51
2023/09/16 11:10:32;;;;;;;637.42;233.95;;;;;;;;;;5061006;28;20024;-54
2023/09/16 11:12:57;;;;;;;638.10;234.20;;;;;;;;;;5067926;28;20062;-52
2023/09/16 11:15:29;;;;;;;642.53;247.10;;;;;;;;;;5067088;28;20730;-54
2023/09/16 11:18:04;;;;;;;639.88;234.43;;;;;;;;;;5067706;28;20035;-52
2023/09/16 11:20:33;;;;;;;646.22;239.90;;;;;;;;;;5065110;28;20041;-53
2023/09/16 11:23:05;;;;;;;637.25;236.68;;;;;;;;;;5049966;28;20047;-53
2023/09/16 11:25:32;;;;;;;640.90;245.00;;;;;;;;;;5049768;28;20040;-55
2023/09/16 11:27:57;;;;;;;644.58;242.38;;;;;;;;;;5047164;28;20039;-53
2023/09/16 11:30:22;;;;;;;641.58;239.55;;;;;;;;;;5054652;28;20471;-55
2023/09/16 11:32:57;;;;;;;635.70;235.88;;;;;;;;;;5053047;28;20025;-56
2023/09/16 11:35:23;;;;;;;640.88;245.38;;;;;;;;;;5062444;28;20032;-55
2023/09/16 11:37:48;;;;;;;638.20;241.02;;;;;;;;;;5063915;28;20051;-56
2023/09/16 11:40:14;;;;;;;644.58;246.82;;;;;;;;;;5066513;28;20446;-51
2023/09/16 11:42:39;;;;;;;639.65;240.60;;;;;;;;;;5048171;28;20103;-54
2023/09/16 11:45:05;;;;;;;643.03;247.38;;;;;;;;;;5061713;28;20410;-54
2023/09/16 11:47:31;;;;;;;645.47;255.57;;;;;;;;;;5047748;28;20017;-54
2023/09/16 11:49:56;;;;;;;642.00;251.10;;;;;;;;;;5050373;28;20471;-54
2023/09/16 11:52:21;;;;;;;640.38;255.70;;;;;;;;;;5047622;28;20111;-55
2023/09/16 11:54:47;;;;;;;646.75;254.95;;;;;;;;;;5054140;28;20028;-54
2023/09/16 11:57:12;;;;;;;649.85;265.08;;;;;;;;;;5048221;28;20029;-54
2023/09/16 11:59:38;;;;;;;648.33;268.85;;;;;;;;;;5065807;28;20056;-53
2023/09/16 12:02:04;;;;;;;647.58;266.23;;;;;;;;;;5067600;28;20115;-51
2023/09/16 12:04:30;;;;;;;646.22;262.90;;;;;;;;;;5064422;28;20027;-54
2023/09/16 12:06:55;;;;;;;649.45;271.73;;;;;;;;;;5047304;28;20025;-55
2023/09/16 12:09:22;;;;;;;650.70;275.92;;;;;;;;;;5050050;28;20027;-52
2023/09/16 12:11:49;;;;;;;650.95;274.77;;;;;;;;;;5066027;28;20063;-53
2023/09/16 12:14:15;;;;;;;649.63;272.27;;;;;;;;;;5065929;28;20675;-54
2023/09/16 12:16:40;;;;;;;648.80;274.38;;;;;;;;;;5063639;28;20105;-56
2023/09/16 12:19:05;;;;;;;654.33;281.80;;;;;;;;;;5062499;28;20051;-53
2023/09/16 12:21:31;;;;;;;658.00;292.77;;;;;;;;;;5064200;28;20094;-54
2023/09/16 12:23:56;;;;;;;655.22;290.00;;;;;;;;;;5066058;28;20029;-56
2023/09/16 12:26:22;;;;;;;659.58;281.60;;;;;;;;;;5065966;28;20485;-56
2023/09/16 12:28:47;;;;;;;658.58;281.85;;;;;;;;;;5065709;28;20021;-52
2023/09/16 12:31:12;;;;;;;655.85;279.27;;;;;;;;;;5065398;28;20037;-56
2023/09/16 12:33:41;;;;;;;654.08;287.55;;;;;;;;;;5064281;28;20020;-53
2023/09/16 12:36:06;;;;;;;655.17;280.65;;;;;;;;;;5062651;28;20024;-54
2023/09/16 12:38:36;;;;;;;660.60;291.13;;;;;;;;;;5046769;28;20029;-54
2023/09/16 12:41:04;;;;;;;655.45;284.73;;;;;;;;;;5061466;28;20032;-53
2023/09/16 12:43:30;;;;;;;655.72;277.40;;;;;;;;;;5064951;28;20052;-54
2023/09/16 12:45:56;;;;;;;650.55;275.23;;;;;;;;;;5059086;28;20064;-55
2023/09/16 12:48:21;;;;;;;651.30;276.15;;;;;;;;;;5065203;28;20447;-53
2023/09/16 12:50:47;;;;;;;648.63;264.33;;;;;;;;;;5065492;28;20111;-53
2023/09/16 12:53:12;;;;;;;652.65;269.73;;;;;;;;;;5059418;28;20047;-54
2023/09/16 12:55:39;;;;;;;655.40;266.67;;;;;;;;;;5062242;28;20028;-53
2023/09/16 12:58:09;;;;;;;650.47;259.33;;;;;;;;;;5058650;28;20044;-53
2023/09/16 13:00:34;;;;;;;657.50;258.83;;;;;;;;;;5061659;28;20474;-52
2023/09/16 13:03:00;;;;;;;650.08;252.60;;;;;;;;;;5051770;28;20036;-53
2023/09/16 13:05:27;;;;;;;649.10;255.38;;;;;;;;;;5064569;28;20478;-51
2023/09/16 13:07:57;;;;;;;647.58;262.42;;;;;;;;;;5065186;28;20122;-53
2023/09/16 13:10:23;;;;;;;645.40;261.65;;;;;;;;;;5065040;28;20027;-53
2023/09/16 13:12:49;;;;;;;651.30;268.98;;;;;;;;;;5064013;28;20385;-54
2023/09/16 13:15:17;;;;;;;651.53;269.65;;;;;;;;;;5064803;28;20428;-52
2023/09/16 13:17:43;;;;;;;652.97;266.95;;;;;;;;;;5048109;28;20017;-57
2023/09/16 13:20:12;;;;;;;651.72;273.35;;;;;;;;;;5055668;28;20036;-57
2023/09/16 13:22:37;;;;;;;651.70;265.73;;;;;;;;;;5065884;28;20492;-56
2023/09/16 13:25:23;;;;;;;653.92;270.25;;;;;;;;;;5063550;28;20103;-53
2023/09/16 13:27:49;;;;;;;651.53;262.85;;;;;;;;;;5050989;28;20032;-54
2023/09/16 13:30:14;;;;;;;646.80;260.00;;;;;;;;;;5064638;28;20034;-56
2023/09/16 13:32:52;;;;;;;650.03;268.63;;;;;;;;;;5056761;28;20032;-54
2023/09/16 13:35:17;;;;;;;649.60;264.25;;;;;;;;;;5056263;28;20025;-50
2023/09/16 13:37:43;;;;;;;651.53;265.33;;;;;;;;;;5064463;28;20095;-56
2023/09/16 13:40:14;;;;;;;650.47;266.88;;;;;;;;;;5045294;28;20029;-53
2023/09/16 13:42:40;;;;;;;648.00;255.57;;;;;;;;;;5064714;28;20140;-55
2023/09/16 13:45:05;;;;;;;645.90;258.23;;;;;;;;;;5062584;28;20037;-54